Time;durP1;ratioP1;P1;durP2;ratioP2;P2;SDS_P1;SDS_P2;PMS_P1;PMS_P2;Temp;Humidity;BMP_temperature;BMP_pressure;BME280_temperature;BME280_humidity;BME280_pressure;Samples;Min_cycle;Max_cycle;Signal;HPM_P1;HPM_P2
2024/01/23 00:00:14;;;;;;;1.80;1.70;;;;;;;18.86;44.91;97902.00;4992916;28;20206;-25
2024/01/23 00:02:40;;;;;;;1.73;1.63;;;;;;;18.84;45.18;97893.44;4992368;28;20219;-25
2024/01/23 00:05:07;;;;;;;1.80;1.70;;;;;;;18.87;44.99;97890.16;4985226;28;20305;-25
2024/01/23 00:07:34;;;;;;;2.03;1.83;;;;;;;18.86;45.23;97880.78;4993462;28;20598;-25
2024/01/23 00:10:00;;;;;;;1.80;1.70;;;;;;;18.88;45.29;97890.22;4992477;28;20207;-26
2024/01/23 00:12:27;;;;;;;1.60;1.50;;;;;;;18.87;45.54;97869.78;4991274;28;20254;-26
2024/01/23 00:14:54;;;;;;;1.90;1.70;;;;;;;18.87;45.03;97868.13;4992046;28;20257;-25
2024/01/23 00:17:21;;;;;;;1.53;1.43;;;;;;;18.87;45.65;97865.56;4992566;28;20246;-25
2024/01/23 00:19:51;;;;;;;1.80;1.70;;;;;;;18.86;45.35;97861.25;4992871;28;20206;-25
2024/01/23 00:22:19;;;;;;;1.70;1.60;;;;;;;18.87;45.26;97869.78;4992297;28;20227;-26
2024/01/23 00:24:45;;;;;;;1.60;1.50;;;;;;;18.87;45.03;97872.31;4991472;28;20258;-25
2024/01/23 00:27:12;;;;;;;1.73;1.63;;;;;;;18.77;45.42;97860.00;4991445;28;20211;-27
2024/01/23 00:29:39;;;;;;;1.83;1.73;;;;;;;18.86;45.24;97876.53;4991266;28;20843;-25
2024/01/23 00:32:06;;;;;;;1.70;1.60;;;;;;;18.83;45.16;97863.66;4992263;28;20195;-25
2024/01/23 00:34:32;;;;;;;1.60;1.50;;;;;;;18.86;44.67;97870.59;4992802;28;20281;-25
2024/01/23 00:36:59;;;;;;;1.70;1.60;;;;;;;18.86;45.13;97862.94;4992404;28;20261;-25
2024/01/23 00:39:25;;;;;;;1.80;1.70;;;;;;;18.88;45.23;97864.75;4992164;28;20310;-25
2024/01/23 00:41:53;;;;;;;3.47;1.63;;;;;;;18.88;45.08;97863.88;4991717;28;20223;-25
2024/01/23 00:44:19;;;;;;;1.43;1.33;;;;;;;18.88;45.24;97863.88;4992091;28;20709;-25
2024/01/23 00:46:46;;;;;;;2.00;1.63;;;;;;;18.88;45.14;97856.22;4992093;28;20230;-25
2024/01/23 00:49:12;;;;;;;1.50;1.40;;;;;;;18.88;44.51;97871.50;4991950;28;20216;-25
2024/01/23 00:51:39;;;;;;;1.60;1.50;;;;;;;18.88;45.14;97869.84;4991714;28;20573;-27
2024/01/23 00:54:06;;;;;;;1.50;1.40;;;;;;;18.87;45.04;97875.75;4990916;28;20561;-25
2024/01/23 00:56:35;;;;;;;1.63;1.53;;;;;;;18.86;45.32;97878.22;4991824;28;20213;-26
2024/01/23 00:59:01;;;;;;;1.63;1.50;;;;;;;18.87;45.25;97883.38;4992124;28;20244;-25
2024/01/23 01:01:28;;;;;;;1.70;1.60;;;;;;;18.87;45.19;97888.47;4991013;28;20252;-25
2024/01/23 01:03:55;;;;;;;1.83;1.70;;;;;;;18.86;45.25;97885.88;4990951;28;20257;-25
2024/01/23 01:06:22;;;;;;;1.53;1.43;;;;;;;18.87;45.04;97895.25;4990066;28;20262;-25
2024/01/23 01:08:49;;;;;;;1.70;1.60;;;;;;;18.86;45.70;97896.91;4990924;28;20653;-26
2024/01/23 01:11:15;;;;;;;1.73;1.63;;;;;;;18.86;45.16;97898.59;4991820;28;20241;-25
2024/01/23 01:13:42;;;;;;;1.53;1.43;;;;;;;18.86;45.10;97903.69;4991920;28;20222;-25
2024/01/23 01:16:09;;;;;;;1.60;1.50;;;;;;;18.88;44.86;97920.78;5005983;28;20242;-27
2024/01/23 01:18:36;;;;;;;1.60;1.50;;;;;;;18.88;45.15;97909.72;4991833;28;20199;-26
2024/01/23 01:21:04;;;;;;;1.60;1.50;;;;;;;18.89;45.25;97908.94;4991315;28;20772;-25
2024/01/23 01:23:30;;;;;;;1.60;1.50;;;;;;;18.88;45.22;97907.16;4991350;28;20250;-25
2024/01/23 01:25:57;;;;;;;1.70;1.60;;;;;;;18.77;45.31;97890.53;4991804;28;20549;-25
2024/01/23 01:28:23;;;;;;;1.80;1.60;;;;;;;18.88;44.89;97904.63;4992668;28;20715;-28
2024/01/23 01:30:50;;;;;;;1.40;1.30;;;;;;;18.88;45.30;97907.16;4991709;28;20207;-28
2024/01/23 01:33:18;;;;;;;1.90;1.60;;;;;;;18.82;45.00;97902.66;4991592;28;20237;-25
2024/01/23 01:35:45;;;;;;;1.70;1.60;;;;;;;18.84;45.12;97916.34;4991860;28;20207;-25
2024/01/23 01:38:11;;;;;;;2.93;1.37;;;;;;;18.87;45.56;97926.69;4974608;28;20234;-25
2024/01/23 01:40:38;;;;;;;1.60;1.43;;;;;;;18.86;45.26;97930.00;4991077;28;20293;-25
2024/01/23 01:43:04;;;;;;;1.40;1.30;;;;;;;18.86;45.47;97932.56;4989247;28;20234;-26
2024/01/23 01:45:31;;;;;;;1.60;1.50;;;;;;;18.85;45.69;97927.38;4991700;28;20302;-25
2024/01/23 01:47:57;;;;;;;1.50;1.40;;;;;;;18.86;45.42;97942.75;4993549;28;20203;-26
2024/01/23 01:50:24;;;;;;;2.07;1.50;;;;;;;18.87;45.14;97948.72;4961825;28;20230;-25
2024/01/23 01:52:50;;;;;;;1.50;1.40;;;;;;;18.87;45.17;97956.34;5010143;28;20218;-27
2024/01/23 01:55:17;;;;;;;1.33;1.23;;;;;;;18.86;44.85;97946.97;4988548;28;20258;-27
2024/01/23 01:57:44;;;;;;;1.70;1.60;;;;;;;18.88;45.04;97961.53;4961283;28;20226;-25
2024/01/23 02:00:11;;;;;;;1.37;1.30;;;;;;;18.89;45.06;97957.31;4976351;28;20223;-25
2024/01/23 02:02:41;;;;;;;1.53;1.43;;;;;;;18.86;44.97;97949.53;4994773;28;20231;-25
2024/01/23 02:05:08;;;;;;;1.40;1.30;;;;;;;18.88;45.11;97963.19;4994295;28;20195;-25
2024/01/23 02:07:34;;;;;;;1.60;1.50;;;;;;;18.88;45.24;97970.81;4993843;28;20203;-27
2024/01/23 02:10:01;;;;;;;1.50;1.40;;;;;;;18.87;45.13;97971.63;4996201;28;20210;-25
2024/01/23 02:12:27;;;;;;;1.40;1.30;;;;;;;18.87;45.11;97974.19;4998633;28;20802;-26
2024/01/23 02:14:54;;;;;;;1.40;1.30;;;;;;;18.86;45.29;97972.44;4994805;28;20301;-31
2024/01/23 02:17:21;;;;;;;1.40;1.30;;;;;;;18.86;45.24;97975.84;4994583;28;20198;-25
2024/01/23 02:19:50;;;;;;;1.40;1.30;;;;;;;18.84;45.28;97980.03;4994800;28;20203;-25
2024/01/23 02:22:17;;;;;;;1.30;1.20;;;;;;;18.87;44.76;97981.81;4994581;28;20454;-25
2024/01/23 02:24:44;;;;;;;1.50;1.40;;;;;;;18.87;45.23;97989.47;4994386;28;20215;-26
2024/01/23 02:27:11;;;;;;;1.60;1.50;;;;;;;18.85;44.64;97978.31;4994245;28;20631;-26
2024/01/23 02:29:37;;;;;;;1.63;1.53;;;;;;;18.87;44.98;97981.81;4994659;28;20195;-31
2024/01/23 02:32:04;;;;;;;1.40;1.30;;;;;;;18.86;45.11;97983.50;4994907;28;20195;-25
2024/01/23 02:34:30;;;;;;;1.57;1.43;;;;;;;18.89;45.41;97992.97;4993444;28;20273;-28
2024/01/23 02:36:57;;;;;;;1.53;1.43;;;;;;;18.80;45.14;97984.91;4993213;28;20258;-26
2024/01/23 02:39:25;;;;;;;1.50;1.40;;;;;;;18.78;45.21;97984.81;4992646;28;20198;-25
2024/01/23 02:41:52;;;;;;;1.50;1.40;;;;;;;18.85;45.05;97981.75;4992220;28;20430;-25
2024/01/23 02:44:19;;;;;;;1.50;1.40;;;;;;;18.84;45.23;97987.66;4975883;28;20227;-25
2024/01/23 02:46:46;;;;;;;1.50;1.40;;;;;;;18.81;45.33;97972.22;4992619;28;20211;-26
2024/01/23 02:49:12;;;;;;;1.53;1.43;;;;;;;18.84;44.92;97969.84;4991193;28;20254;-28
2024/01/23 02:51:39;;;;;;;1.40;1.30;;;;;;;18.83;45.09;97970.59;4992665;28;20201;-26
2024/01/23 02:54:06;;;;;;;1.97;1.50;;;;;;;18.83;45.10;97979.94;4993278;28;20223;-25
2024/01/23 02:56:33;;;;;;;1.40;1.30;;;;;;;18.84;45.24;97992.75;4993478;28;20215;-25
2024/01/23 02:58:59;;;;;;;1.50;1.40;;;;;;;18.80;45.21;97990.84;4991311;28;20202;-28
2024/01/23 03:01:26;;;;;;;1.60;1.50;;;;;;;18.84;45.06;97992.75;4991968;28;20257;-25
2024/01/23 03:03:53;;;;;;;1.60;1.50;;;;;;;18.83;44.37;98001.16;4990389;28;20227;-34
2024/01/23 03:06:19;;;;;;;1.40;1.30;;;;;;;18.83;45.16;97992.69;4990710;28;20233;-26
2024/01/23 03:08:46;;;;;;;1.40;1.30;;;;;;;18.87;45.10;98009.84;4991287;28;20662;-26
2024/01/23 03:11:13;;;;;;;1.63;1.47;;;;;;;18.86;45.01;98008.09;4991144;28;20202;-25
2024/01/23 03:13:39;;;;;;;1.40;1.30;;;;;;;18.87;45.16;98004.75;4991285;28;20250;-25
2024/01/23 03:16:06;;;;;;;1.83;1.30;;;;;;;18.85;45.14;98008.88;4990879;28;20269;-28
2024/01/23 03:18:33;;;;;;;1.63;1.33;;;;;;;18.79;45.27;97999.28;4985620;28;20643;-26
2024/01/23 03:20:59;;;;;;;1.40;1.30;;;;;;;18.85;45.68;98009.75;4992296;28;20269;-31
2024/01/23 03:23:26;;;;;;;1.37;1.27;;;;;;;18.86;45.34;98020.84;4990592;28;20222;-27
2024/01/23 03:25:53;;;;;;;1.50;1.27;;;;;;;18.85;45.34;98019.06;4991886;28;20207;-26
2024/01/23 03:28:20;;;;;;;1.27;1.20;;;;;;;18.85;45.34;98022.50;4991360;28;20234;-25
2024/01/23 03:30:47;;;;;;;1.50;1.40;;;;;;;18.79;45.77;98024.75;4992223;28;20757;-26
2024/01/23 03:33:13;;;;;;;2.00;1.20;;;;;;;18.80;45.32;98023.94;4992542;28;20665;-25
2024/01/23 03:35:40;;;;;;;1.33;1.23;;;;;;;18.86;45.45;98043.75;4992956;28;20222;-25
2024/01/23 03:38:07;;;;;;;1.50;1.40;;;;;;;18.84;45.26;98041.13;4988735;28;20203;-26
2024/01/23 03:40:34;;;;;;;1.37;1.27;;;;;;;18.86;45.27;98048.84;4993003;28;20203;-26
2024/01/23 03:43:00;;;;;;;1.40;1.30;;;;;;;18.86;45.07;98053.94;4993481;28;20219;-25
2024/01/23 03:45:27;;;;;;;1.30;1.27;;;;;;;18.87;45.14;98053.13;4992788;28;20478;-25
2024/01/23 03:47:54;;;;;;;1.40;1.30;;;;;;;18.86;44.82;98067.53;4993012;28;20281;-25
2024/01/23 03:50:21;;;;;;;1.20;1.10;;;;;;;18.87;45.26;98070.94;4992073;28;20211;-25
2024/01/23 03:52:47;;;;;;;1.40;1.20;;;;;;;18.86;45.15;98081.94;4991256;28;20253;-26
2024/01/23 03:55:14;;;;;;;1.40;1.30;;;;;;;18.83;45.10;98103.03;4990995;28;20207;-26
2024/01/23 03:57:41;;;;;;;1.27;1.17;;;;;;;18.79;45.25;98108.78;4991665;28;20199;-25
2024/01/23 04:00:08;;;;;;;1.50;1.40;;;;;;;18.86;45.29;98135.44;4991084;28;20290;-25
2024/01/23 04:02:37;;;;;;;1.57;1.43;;;;;;;18.82;45.33;98108.03;4992845;28;20221;-25
2024/01/23 04:05:07;;;;;;;1.40;1.30;;;;;;;18.83;45.43;98114.91;4993698;28;20214;-25
2024/01/23 04:07:33;;;;;;;1.60;1.50;;;;;;;18.84;45.10;98091.19;4990537;28;20572;-25
2024/01/23 04:10:00;;;;;;;1.40;1.30;;;;;;;18.84;45.35;98099.69;4993174;28;20253;-27
2024/01/23 04:12:27;;;;;;;1.30;1.20;;;;;;;18.83;45.21;98077.56;4992617;28;20334;-25
2024/01/23 04:14:54;;;;;;;1.37;1.27;;;;;;;18.85;45.55;98091.25;4993444;28;20219;-25
2024/01/23 04:17:20;;;;;;;1.53;1.43;;;;;;;18.86;45.27;98110.81;4992448;28;20206;-27
2024/01/23 04:19:47;;;;;;;1.10;1.10;;;;;;;18.85;45.06;98111.63;4992928;28;20286;-25
2024/01/23 04:22:14;;;;;;;1.30;1.20;;;;;;;18.87;45.57;98114.25;4993106;28;20696;-25
2024/01/23 04:24:40;;;;;;;1.80;1.60;;;;;;;18.87;45.28;98112.59;4993132;28;20239;-26
2024/01/23 04:27:07;;;;;;;1.13;1.10;;;;;;;18.87;45.45;98115.13;4993706;28;20211;-33
2024/01/23 04:29:34;;;;;;;1.20;1.10;;;;;;;18.84;45.63;98109.88;4988935;28;20206;-25
2024/01/23 04:32:00;;;;;;;1.40;1.30;;;;;;;18.85;45.39;98123.47;4993828;28;20234;-25
2024/01/23 04:34:27;;;;;;;1.23;1.10;;;;;;;18.85;45.33;98129.44;4993747;28;20262;-28
2024/01/23 04:36:54;;;;;;;1.43;1.33;;;;;;;18.78;45.57;98123.97;4974972;28;20641;-27
2024/01/23 04:39:20;;;;;;;1.10;1.10;;;;;;;18.83;45.09;98131.03;4991885;28;20234;-26
2024/01/23 04:41:47;;;;;;;1.17;1.07;;;;;;;18.85;45.24;98120.94;4999037;28;20281;-25
2024/01/23 04:44:13;;;;;;;1.20;1.10;;;;;;;18.85;45.03;98124.34;4993199;28;20219;-25
2024/01/23 04:46:40;;;;;;;1.53;1.40;;;;;;;18.84;44.95;98145.53;4997557;28;20644;-33
2024/01/23 04:49:07;;;;;;;1.23;1.13;;;;;;;18.83;45.27;98140.38;4992550;28;20214;-25
2024/01/23 04:51:34;;;;;;;1.43;1.10;;;;;;;18.83;45.18;98140.38;4997477;28;20199;-25
2024/01/23 04:54:00;;;;;;;1.20;1.10;;;;;;;18.86;45.24;98150.72;4998970;28;20285;-27
2024/01/23 04:56:27;;;;;;;1.10;1.10;;;;;;;18.87;45.28;98147.34;4991899;28;20231;-25
2024/01/23 04:58:54;;;;;;;1.30;1.20;;;;;;;18.86;45.29;98140.53;4991622;28;20203;-25
2024/01/23 05:01:21;;;;;;;1.27;1.17;;;;;;;18.87;45.03;98127.88;4990795;28;20199;-25
2024/01/23 05:03:47;;;;;;;1.50;1.40;;;;;;;18.81;45.39;98135.22;4995050;28;20720;-25
2024/01/23 05:06:14;;;;;;;1.30;1.20;;;;;;;18.87;45.03;98134.63;4990929;28;20195;-25
2024/01/23 05:08:41;;;;;;;1.10;1.10;;;;;;;18.82;45.54;98120.78;4991226;28;20195;-26
2024/01/23 05:11:08;;;;;;;1.27;1.17;;;;;;;18.86;45.18;98141.38;4991970;28;20205;-25
2024/01/23 05:13:35;;;;;;;1.40;1.30;;;;;;;18.78;45.65;98140.16;4990997;28;20239;-25
2024/01/23 05:16:01;;;;;;;1.30;1.20;;;;;;;18.84;45.39;98148.09;4991371;28;20230;-27
2024/01/23 05:18:28;;;;;;;1.30;1.20;;;;;;;18.80;45.11;98135.97;4992830;28;20712;-25
2024/01/23 05:20:55;;;;;;;1.03;1.03;;;;;;;18.85;45.21;98139.63;4994578;28;20766;-25
2024/01/23 05:23:24;;;;;;;1.10;1.10;;;;;;;18.79;45.01;98130.81;4995388;28;20226;-25
2024/01/23 05:25:50;;;;;;;1.00;1.00;;;;;;;18.85;45.35;98154.03;4995788;28;20203;-25
2024/01/23 05:28:17;;;;;;;1.20;1.20;;;;;;;18.86;45.17;98158.34;4998843;28;20693;-25
2024/01/23 05:30:43;;;;;;;1.20;1.10;;;;;;;18.87;44.99;98157.53;4995775;28;20233;-25
2024/01/23 05:33:11;;;;;;;1.10;1.10;;;;;;;18.87;45.15;98155.00;4994917;28;20233;-25
2024/01/23 05:35:37;;;;;;;1.43;1.20;;;;;;;18.88;45.15;98166.91;4995211;28;20282;-25
2024/01/23 05:38:04;;;;;;;1.10;1.00;;;;;;;18.86;44.77;98163.44;4995001;28;20751;-27
2024/01/23 05:40:31;;;;;;;1.10;1.10;;;;;;;18.87;45.21;98171.16;4999520;28;20584;-25
2024/01/23 05:42:57;;;;;;;1.10;1.10;;;;;;;18.88;45.23;98166.91;5000082;28;20279;-25
2024/01/23 05:45:24;;;;;;;1.10;1.10;;;;;;;18.86;45.12;98169.38;4994825;28;20199;-25
2024/01/23 05:47:50;;;;;;;1.40;1.30;;;;;;;18.86;45.03;98174.47;4995350;28;20210;-26
2024/01/23 05:50:17;;;;;;;1.23;1.20;;;;;;;18.88;45.06;98200.91;4994762;28;20207;-25
2024/01/23 05:52:44;;;;;;;1.10;1.10;;;;;;;18.87;45.01;98208.47;4995153;28;20199;-25
2024/01/23 05:55:11;;;;;;;1.27;1.17;;;;;;;18.88;45.03;98215.31;4997800;28;20206;-25
2024/01/23 05:57:37;;;;;;;1.23;1.23;;;;;;;18.87;45.40;98217.00;5009196;28;20203;-25
2024/01/23 06:00:06;;;;;;;1.10;1.10;;;;;;;18.87;45.31;98209.34;4994950;28;20210;-33
2024/01/23 06:02:33;;;;;;;1.20;1.20;;;;;;;18.86;45.26;98207.59;4993199;28;20223;-26
2024/01/23 06:04:59;;;;;;;1.17;1.10;;;;;;;18.88;45.62;98203.47;4994363;28;20222;-27
2024/01/23 06:07:26;;;;;;;1.10;1.00;;;;;;;18.89;45.47;98222.16;4994010;28;20240;-25
2024/01/23 06:09:53;;;;;;;1.20;1.10;;;;;;;18.88;45.23;98218.75;4994099;28;20645;-25
2024/01/23 06:12:20;;;;;;;1.20;1.10;;;;;;;18.89;44.92;98238.31;4994474;28;20207;-28
2024/01/23 06:14:47;;;;;;;1.03;1.03;;;;;;;18.82;44.65;98236.25;4994572;28;20697;-25
2024/01/23 06:17:14;;;;;;;1.07;1.00;;;;;;;18.89;45.14;98255.28;4993758;28;20237;-27
2024/01/23 06:19:40;;;;;;;1.40;1.30;;;;;;;18.89;45.17;98262.91;4997521;28;20673;-25
2024/01/23 06:22:07;;;;;;;1.60;1.20;;;;;;;18.88;45.29;98261.16;4994524;28;20199;-25
2024/01/23 06:24:34;;;;;;;1.30;1.20;;;;;;;18.89;45.11;98276.50;4996716;28;20222;-25
2024/01/23 06:27:00;;;;;;;1.10;1.10;;;;;;;18.89;45.08;98296.03;4994469;28;20206;-31
2024/01/23 06:29:27;;;;;;;1.10;1.10;;;;;;;18.81;45.21;98288.00;4994332;28;20206;-27
2024/01/23 06:31:53;;;;;;;1.10;1.10;;;;;;;18.79;45.28;98294.66;4992866;28;20269;-28
2024/01/23 06:34:21;;;;;;;1.93;1.40;;;;;;;18.90;45.13;98310.50;4995350;28;20230;-25
2024/01/23 06:36:48;;;;;;;2.63;1.30;;;;;;;18.91;45.11;98299.50;4993003;28;20203;-27
2024/01/23 06:39:15;;;;;;;1.40;1.30;;;;;;;18.91;45.28;98309.69;4994360;28;20238;-25
2024/01/23 06:41:44;;;;;;;1.30;1.20;;;;;;;18.89;45.32;98319.81;4998872;28;20246;-25
2024/01/23 06:44:11;;;;;;;1.60;1.30;;;;;;;18.87;45.26;98334.16;4993660;28;20713;-25
2024/01/23 06:46:38;;;;;;;2.77;1.20;;;;;;;18.88;45.49;98340.09;4993519;28;20686;-25
2024/01/23 06:49:04;;;;;;;1.23;1.13;;;;;;;18.89;45.42;98336.78;4993768;28;20253;-25
2024/01/23 06:51:31;;;;;;;1.50;1.40;;;;;;;18.89;45.15;98331.69;4992975;28;20207;-26
2024/01/23 06:53:58;;;;;;;1.37;1.27;;;;;;;18.89;45.28;98346.97;4992419;28;20215;-25
2024/01/23 06:56:28;;;;;;;1.50;1.40;;;;;;;18.89;45.25;98344.44;4991792;28;20262;-27
2024/01/23 06:58:55;;;;;;;1.30;1.20;;;;;;;18.90;45.21;98346.16;4991735;28;20217;-26
2024/01/23 07:01:21;;;;;;;1.30;1.20;;;;;;;18.88;45.29;98352.84;4992039;28;20214;-25
2024/01/23 07:03:49;;;;;;;1.50;1.40;;;;;;;18.88;45.21;98369.00;4994160;28;20222;-26
2024/01/23 07:06:16;;;;;;;3.23;1.20;;;;;;;18.87;45.30;98372.34;4993232;28;20222;-27
2024/01/23 07:08:42;;;;;;;1.30;1.20;;;;;;;18.89;45.15;98377.53;4993909;28;20298;-25
2024/01/23 07:11:09;;;;;;;2.27;1.20;;;;;;;18.87;45.76;98384.22;4993430;28;20207;-26
2024/01/23 07:13:36;;;;;;;3.07;1.50;;;;;;;18.89;45.13;98387.72;4993693;28;20223;-25
2024/01/23 07:16:02;;;;;;;1.43;1.30;;;;;;;18.89;45.31;98396.22;4993312;28;20576;-27
2024/01/23 07:18:29;;;;;;;3.00;1.17;;;;;;;18.91;45.14;98396.28;4993600;28;20302;-25
2024/01/23 07:20:56;;;;;;;1.47;1.37;;;;;;;18.91;45.16;98406.47;4992775;28;20226;-25
2024/01/23 07:23:22;;;;;;;1.40;1.30;;;;;;;18.89;45.25;98396.22;4994082;28;20277;-26
2024/01/23 07:25:49;;;;;;;1.97;1.20;;;;;;;18.91;45.25;98396.28;4990181;28;20246;-27
2024/01/23 07:28:15;;;;;;;1.17;1.13;;;;;;;18.90;45.09;98399.66;4991515;28;20680;-25
2024/01/23 07:31:00;;;;;;;3.07;1.67;;;;;;;18.92;44.15;98419.31;4992155;28;20257;-25
2024/01/23 07:33:28;;;;;;;2.27;1.80;;;;;;;18.88;44.17;98425.03;4991117;28;20250;-31
2024/01/23 07:35:55;;;;;;;3.90;1.90;;;;;;;18.86;44.69;98426.63;4992184;28;20203;-25
2024/01/23 07:38:21;;;;;;;3.17;1.80;;;;;;;18.85;44.45;98437.59;4992853;28;20203;-25
2024/01/23 07:40:48;;;;;;;2.23;1.63;;;;;;;18.86;45.18;98444.44;4992347;28;20241;-25
2024/01/23 07:43:22;;;;;;;2.83;1.83;;;;;;;18.86;44.88;98441.91;4993074;28;20233;-25
2024/01/23 07:45:49;;;;;;;3.57;1.80;;;;;;;18.87;44.68;98450.44;4977612;28;20198;-25
2024/01/23 07:48:15;;;;;;;2.33;1.50;;;;;;;18.87;44.62;98450.44;4993058;28;20199;-25
2024/01/23 07:50:42;;;;;;;2.83;2.07;;;;;;;18.87;44.70;98447.88;4992203;28;20203;-25
2024/01/23 07:53:09;;;;;;;2.73;1.70;;;;;;;18.88;44.41;98460.69;4992844;28;20250;-25
2024/01/23 07:55:35;;;;;;;4.33;1.90;;;;;;;18.88;44.93;98463.25;4992321;28;20198;-25
2024/01/23 07:58:02;;;;;;;2.23;1.60;;;;;;;18.89;44.65;98476.88;4992954;28;20195;-31
2024/01/23 08:00:29;;;;;;;4.50;1.70;;;;;;;18.89;44.76;98476.88;4991394;28;20203;-25
2024/01/23 08:02:56;;;;;;;3.10;1.97;;;;;;;18.88;44.59;98467.44;4992808;28;20226;-25
2024/01/23 08:05:22;;;;;;;2.60;1.80;;;;;;;18.88;44.78;98480.19;4993380;28;20301;-26
2024/01/23 08:07:49;;;;;;;1.60;1.50;;;;;;;18.88;44.76;98480.19;4992773;28;20566;-25
2024/01/23 08:10:15;;;;;;;3.87;2.10;;;;;;;18.85;44.13;98472.38;4992392;28;20203;-25
2024/01/23 08:12:42;;;;;;;3.50;2.20;;;;;;;18.86;43.44;98479.25;4990993;28;20203;-25
2024/01/23 08:15:09;;;;;;;2.47;1.90;;;;;;;18.86;42.45;98485.19;4991559;28;20740;-27
2024/01/23 08:17:35;;;;;;;5.47;3.13;;;;;;;18.85;42.31;98488.53;4992475;28;20203;-25
2024/01/23 08:20:03;;;;;;;6.33;4.27;;;;;;;18.81;41.89;98481.53;4992159;28;20195;-26
2024/01/23 08:22:30;;;;;;;6.97;4.43;;;;;;;18.78;42.04;98491.56;4986884;28;20210;-26
2024/01/23 08:24:56;;;;;;;8.47;4.50;;;;;;;18.76;42.46;98490.59;4991930;28;20616;-25
2024/01/23 08:27:23;;;;;;;6.67;4.13;;;;;;;18.74;42.89;98494.72;4996830;28;20207;-25
2024/01/23 08:29:50;;;;;;;6.17;3.90;;;;;;;18.75;43.00;98508.31;4996428;28;20295;-25
2024/01/23 08:32:16;;;;;;;8.37;4.50;;;;;;;18.74;43.27;98510.00;4992712;28;20250;-25
2024/01/23 08:34:43;;;;;;;6.47;3.63;;;;;;;18.75;43.20;98510.88;4988400;28;20257;-25
2024/01/23 08:37:10;;;;;;;6.07;3.90;;;;;;;18.75;43.28;98523.59;4989450;28;20209;-27
2024/01/23 08:39:36;;;;;;;5.00;3.60;;;;;;;18.77;43.27;98539.84;4991947;28;20210;-25
2024/01/23 08:42:04;;;;;;;6.40;3.90;;;;;;;18.78;43.47;98533.97;4997155;28;20277;-25
2024/01/23 08:44:30;;;;;;;7.07;3.73;;;;;;;18.76;43.30;98526.25;4991012;28;20233;-25
2024/01/23 08:46:57;;;;;;;5.57;3.77;;;;;;;18.75;43.31;98524.50;4998684;28;20206;-25
2024/01/23 08:49:23;;;;;;;5.13;3.67;;;;;;;18.77;42.79;98529.66;4991427;28;20211;-25
2024/01/23 08:51:50;;;;;;;7.60;4.00;;;;;;;18.77;43.09;98532.22;4996225;28;20198;-25
2024/01/23 08:54:19;;;;;;;5.40;3.70;;;;;;;18.77;43.80;98529.66;4991866;28;20273;-25
2024/01/23 08:56:47;;;;;;;6.67;3.80;;;;;;;18.76;43.78;98533.00;4990927;28;20202;-25
2024/01/23 08:59:14;;;;;;;5.73;3.53;;;;;;;18.78;44.11;98528.88;4991815;28;20211;-25
2024/01/23 09:01:41;;;;;;;5.93;3.80;;;;;;;18.80;43.92;98542.56;4991630;28;20613;-26
2024/01/23 09:04:08;;;;;;;5.43;3.43;;;;;;;18.81;43.86;98549.41;4990678;28;20242;-25
2024/01/23 09:06:34;;;;;;;5.43;3.53;;;;;;;18.82;43.85;98548.63;4993630;28;20211;-36
2024/01/23 09:09:01;;;;;;;5.90;3.30;;;;;;;18.81;44.13;98542.66;4991211;28;20206;-26
2024/01/23 09:11:28;;;;;;;5.83;3.87;;;;;;;18.81;43.74;98541.78;4977865;28;20261;-25
2024/01/23 09:13:58;;;;;;;5.90;3.57;;;;;;;18.75;44.01;98533.78;4991811;28;20644;-25
2024/01/23 09:16:24;;;;;;;4.20;3.17;;;;;;;18.84;43.71;98553.03;4992706;28;20194;-27
2024/01/23 09:18:51;;;;;;;3.77;2.93;;;;;;;18.83;44.23;98568.22;4991330;28;20202;-25
2024/01/23 09:21:18;;;;;;;3.77;2.80;;;;;;;18.82;44.01;98562.22;4993936;28;20232;-25
2024/01/23 09:23:44;;;;;;;3.33;2.63;;;;;;;18.83;43.72;98561.44;4977655;28;20700;-25
2024/01/23 09:26:11;;;;;;;5.67;3.10;;;;;;;18.86;44.26;98565.84;4992165;28;20293;-25
2024/01/23 09:28:38;;;;;;;5.27;3.13;;;;;;;18.83;44.21;98561.44;4991871;28;20423;-25
2024/01/23 09:31:04;;;;;;;3.57;3.03;;;;;;;18.80;44.43;98555.31;4991653;28;20566;-26
2024/01/23 09:33:31;;;;;;;4.33;3.17;;;;;;;18.85;44.50;98562.41;4990102;28;20234;-27
2024/01/23 09:35:58;;;;;;;4.97;3.17;;;;;;;18.88;44.33;98571.88;4990258;28;20207;-25
2024/01/23 09:38:24;;;;;;;3.97;2.70;;;;;;;18.88;44.42;98565.13;4990805;28;20250;-26
2024/01/23 09:40:51;;;;;;;3.97;2.77;;;;;;;18.88;44.68;98566.78;4990959;28;20203;-25
2024/01/23 09:43:21;;;;;;;3.80;2.87;;;;;;;18.85;44.18;98571.72;4992473;28;20282;-25
2024/01/23 09:45:47;;;;;;;4.33;3.30;;;;;;;18.87;44.40;98585.41;4992758;28;20693;-25
2024/01/23 09:48:15;;;;;;;4.20;2.70;;;;;;;18.87;44.32;98585.41;4993600;28;20740;-25
2024/01/23 09:50:42;;;;;;;2.93;2.40;;;;;;;18.87;44.39;98591.41;4990447;28;20658;-26
2024/01/23 09:53:09;;;;;;;3.50;2.60;;;;;;;18.88;44.69;98599.91;4993733;28;20749;-25
2024/01/23 09:55:37;;;;;;;3.93;2.67;;;;;;;18.86;44.59;98596.41;4991272;28;20707;-25
2024/01/23 09:58:03;;;;;;;4.40;3.00;;;;;;;18.82;44.47;98589.34;4997797;28;20211;-26
2024/01/23 10:00:30;;;;;;;4.20;2.70;;;;;;;18.88;44.62;98599.91;4972763;28;20699;-26
2024/01/23 10:02:57;;;;;;;4.37;2.60;;;;;;;18.88;44.28;98612.63;4995097;28;20222;-25
2024/01/23 10:05:23;;;;;;;3.53;2.50;;;;;;;18.90;44.54;98603.41;5003616;28;20666;-29
2024/01/23 10:07:52;;;;;;;4.20;2.60;;;;;;;18.91;44.52;98611.16;4991274;28;20207;-25
2024/01/23 10:10:18;;;;;;;6.77;3.03;;;;;;;18.91;44.42;98621.34;4993893;28;20207;-25
2024/01/23 10:12:49;;;;;;;2.50;2.30;;;;;;;18.91;44.42;98626.44;4981974;28;20202;-25
2024/01/23 10:15:18;;;;;;;3.60;2.77;;;;;;;18.88;44.72;98626.25;4987364;28;20203;-26
2024/01/23 10:17:45;;;;;;;5.60;2.80;;;;;;;18.91;44.63;98640.81;4994716;28;20226;-25
2024/01/23 10:20:14;;;;;;;2.70;2.40;;;;;;;18.91;44.89;98633.19;4993419;28;20206;-25
2024/01/23 10:22:40;;;;;;;3.83;2.30;;;;;;;18.91;44.72;98645.91;4994337;28;20234;-26
2024/01/23 10:25:20;;;;;;;2.43;2.23;;;;;;;18.90;44.74;98647.59;5008588;28;20226;-26
2024/01/23 10:27:52;;;;;;;3.83;2.50;;;;;;;18.81;44.85;98642.00;4995883;28;20298;-25
2024/01/23 10:30:18;;;;;;;4.07;2.83;;;;;;;18.90;44.46;98659.44;4994128;28;20287;-30
2024/01/23 10:32:45;;;;;;;2.90;2.60;;;;;;;18.82;44.68;98650.47;4993107;28;20205;-26
2024/01/23 10:35:12;;;;;;;3.63;2.37;;;;;;;18.93;44.53;98662.19;4992378;28;20203;-29
2024/01/23 10:37:40;;;;;;;3.13;2.30;;;;;;;18.93;44.53;98664.72;4993172;28;20665;-26
2024/01/23 10:40:12;;;;;;;5.63;2.63;;;;;;;18.91;44.41;98661.19;4979584;28;20703;-34
2024/01/23 10:42:39;;;;;;;3.17;2.43;;;;;;;18.90;44.67;98662.91;4994357;28;20257;-25
2024/01/23 10:45:05;;;;;;;2.97;2.50;;;;;;;18.85;44.79;98651.56;5009019;28;20577;-27
2024/01/23 10:47:32;;;;;;;3.40;2.57;;;;;;;18.91;44.69;98648.47;4968776;28;20559;-30
2024/01/23 10:49:58;;;;;;;2.53;2.20;;;;;;;18.90;44.59;98654.34;4987754;28;20210;-25
2024/01/23 10:52:28;;;;;;;2.80;2.10;;;;;;;18.84;44.97;98634.53;4975408;28;20389;-26
2024/01/23 10:54:56;;;;;;;3.23;2.17;;;;;;;18.91;44.54;98651.00;4977301;28;20222;-25
2024/01/23 10:57:23;;;;;;;2.97;2.17;;;;;;;18.91;44.77;98645.91;4976321;28;20199;-27
2024/01/23 10:59:50;;;;;;;2.50;2.27;;;;;;;18.92;44.67;98647.69;4996991;28;20221;-26
2024/01/23 11:02:17;;;;;;;3.03;2.10;;;;;;;18.92;44.57;98655.34;4991994;28;20578;-26
2024/01/23 11:04:43;;;;;;;2.80;2.20;;;;;;;18.89;44.56;98645.81;4991564;28;20238;-28
2024/01/23 11:07:20;;;;;;;3.00;2.17;;;;;;;18.93;44.62;98650.34;4984491;28;20211;-26
2024/01/23 11:09:55;;;;;;;2.57;2.27;;;;;;;18.93;44.44;98645.22;4991702;28;20230;-27
2024/01/23 11:12:45;;;;;;;2.60;2.30;;;;;;;18.94;44.70;98652.06;4973230;28;20214;-25
2024/01/23 11:15:15;;;;;;;2.43;1.90;;;;;;;18.91;44.54;98648.47;4985163;28;20222;-26
2024/01/23 11:17:42;;;;;;;3.13;2.40;;;;;;;18.93;45.24;98646.91;4978570;28;20298;-25
2024/01/23 11:20:13;;;;;;;4.10;2.70;;;;;;;18.92;44.63;98647.69;4989611;28;20214;-27
2024/01/23 11:22:40;;;;;;;3.87;2.27;;;;;;;18.90;44.67;98652.69;4990306;28;20203;-25
2024/01/23 11:25:10;;;;;;;2.83;2.10;;;;;;;18.89;44.73;98653.47;4988071;28;20233;-25
2024/01/23 11:27:38;;;;;;;3.03;2.30;;;;;;;18.92;44.68;98657.88;4972936;28;20199;-26
2024/01/23 11:30:11;;;;;;;3.17;2.23;;;;;;;18.89;44.64;98661.13;4990747;28;20211;-25
2024/01/23 11:32:38;;;;;;;2.80;2.00;;;;;;;18.92;44.47;98660.44;4987915;28;20672;-25